createdAt,value
2022-10-26T00:00:50.867Z,101043.16
2022-10-26T00:03:19.114Z,101043.13
2022-10-26T00:05:48.329Z,101038.69
2022-10-26T00:08:16.156Z,101037.78
2022-10-26T00:10:44.089Z,101040.41
2022-10-26T00:13:14.066Z,101040.34
2022-10-26T00:15:42.954Z,101042.97
2022-10-26T00:18:11.184Z,101040.28
2022-10-26T00:20:39.180Z,101042.03
2022-10-26T00:23:08.355Z,101039.31
2022-10-26T00:25:36.588Z,101048.97
2022-10-26T00:28:04.645Z,101047.16
2022-10-26T00:30:32.614Z,101055.06
2022-10-26T00:33:00.532Z,101040.91
2022-10-26T00:35:45.185Z,101054.09
2022-10-26T00:38:15.434Z,101049.63
2022-10-26T00:40:44.407Z,101055.78
2022-10-26T00:43:17.223Z,101056.63
2022-10-26T00:45:46.613Z,101049.53
2022-10-26T00:48:21.197Z,101040.66
2022-10-26T00:50:49.617Z,101057.34
2022-10-26T00:53:19.589Z,101068.81
2022-10-26T00:55:50.971Z,101055.50
2022-10-26T00:58:20.005Z,101059.84
2022-10-26T01:00:48.487Z,101059.78
2022-10-26T01:03:17.066Z,101062.38
2022-10-26T01:05:47.266Z,101071.16
2022-10-26T01:08:17.128Z,101074.63
2022-10-26T01:10:46.990Z,101076.34
2022-10-26T01:13:18.152Z,101074.53
2022-10-26T01:15:56.627Z,101069.22
2022-10-26T01:18:33.231Z,101066.50
2022-10-26T01:21:27.260Z,101068.25
2022-10-26T01:24:17.759Z,101063.81
2022-10-26T01:26:58.684Z,101057.59
2022-10-26T01:29:54.039Z,101052.28
2022-10-26T01:32:28.355Z,101061.94
2022-10-26T01:35:06.179Z,101063.66
2022-10-26T01:37:41.330Z,101054.81
2022-10-26T01:40:17.587Z,101059.19
2022-10-26T01:42:50.568Z,101046.75
2022-10-26T01:45:19.445Z,101051.13
2022-10-26T01:47:50.500Z,101050.22
2022-10-26T01:50:20.966Z,101055.47
2022-10-26T01:52:51.143Z,101053.69
2022-10-26T01:55:45.623Z,101056.28
2022-10-26T01:58:32.160Z,101045.63
2022-10-26T02:01:08.705Z,101050.88
2022-10-26T02:03:47.263Z,101043.81
2022-10-26T02:06:20.532Z,101047.28
2022-10-26T02:08:59.540Z,101044.63
2022-10-26T02:11:37.259Z,101041.06
2022-10-26T02:16:56.559Z,101047.22
2022-10-26T02:19:39.423Z,101048.06
2022-10-26T02:22:15.562Z,101044.47
2022-10-26T02:24:45.072Z,101047.16
2022-10-26T02:27:17.970Z,101051.53
2022-10-26T02:29:47.484Z,101040.94
2022-10-26T02:32:16.146Z,101047.91
2022-10-26T02:34:48.675Z,101046.19
2022-10-26T02:37:20.190Z,101037.34
2022-10-26T02:39:50.568Z,101041.75
2022-10-26T02:42:20.508Z,101032.06
2022-10-26T02:44:51.422Z,101035.59
2022-10-26T02:47:20.513Z,101028.50
2022-10-26T02:49:49.862Z,101033.78
2022-10-26T02:52:21.459Z,101027.59
2022-10-26T02:54:55.014Z,101023.19
2022-10-26T02:57:30.471Z,101009.94
2022-10-26T02:59:59.362Z,101020.50
2022-10-26T03:02:30.141Z,101018.69
2022-10-26T03:05:08.872Z,101021.31
2022-10-26T03:07:36.818Z,101020.41
2022-10-26T03:10:05.236Z,101010.69
2022-10-26T03:12:33.086Z,101012.47
2022-10-26T03:15:01.039Z,101014.19
2022-10-26T03:17:28.998Z,101013.28
2022-10-26T03:19:57.281Z,101013.25
2022-10-26T03:22:26.581Z,101014.97
2022-10-26T03:24:54.478Z,101014.94
2022-10-26T03:27:23.107Z,101017.56
2022-10-26T03:29:51.089Z,101013.13
2022-10-26T03:32:19.012Z,101009.56
2022-10-26T03:34:47.362Z,101007.78
2022-10-26T03:37:15.291Z,101006.88
2022-10-26T03:39:44.677Z,101004.19
2022-10-26T03:42:12.656Z,101002.44
2022-10-26T03:44:40.524Z,101005.06
2022-10-26T03:47:08.396Z,101002.38
2022-10-26T03:49:36.244Z,101005.00
2022-10-26T03:52:04.619Z,101004.97
2022-10-26T03:54:32.664Z,101005.84
2022-10-26T03:57:01.894Z,101003.97
2022-10-26T03:59:29.771Z,101001.28
2022-10-26T04:01:58.042Z,101001.22
2022-10-26T04:04:26.354Z,101002.91
2022-10-26T04:06:54.276Z,100998.44
2022-10-26T04:09:22.266Z,101001.03
2022-10-26T04:11:50.094Z,101008.06
2022-10-26T04:14:19.477Z,100999.25
2022-10-26T04:16:47.301Z,100998.28
2022-10-26T04:19:15.268Z,101002.69
2022-10-26T04:21:43.153Z,100995.66
2022-10-26T04:24:12.243Z,101007.06
2022-10-26T04:26:40.285Z,101007.06
2022-10-26T04:29:09.333Z,100998.25
2022-10-26T04:31:38.654Z,100993.88
2022-10-26T04:34:06.653Z,100994.78
2022-10-26T04:36:35.159Z,101000.06
2022-10-26T04:39:03.370Z,100993.06
2022-10-26T04:41:31.242Z,100999.25
2022-10-26T04:43:59.332Z,100995.72
2022-10-26T04:46:27.174Z,100989.59
2022-10-26T04:48:56.464Z,100987.03
2022-10-26T04:51:24.312Z,100988.00
2022-10-26T04:53:54.917Z,100995.13
2022-10-26T04:56:22.765Z,100989.03
2022-10-26T04:58:51.191Z,100988.16
2022-10-26T05:01:19.246Z,100991.63
2022-10-26T05:03:50.937Z,100981.13
2022-10-26T05:06:20.470Z,100987.31
2022-10-26T05:08:48.460Z,100988.22
2022-10-26T05:11:16.744Z,100995.28
2022-10-26T05:13:44.714Z,100994.41
2022-10-26T05:16:12.590Z,100990.91
2022-10-26T05:18:40.521Z,101000.59
2022-10-26T05:21:08.482Z,100983.88
2022-10-26T05:23:37.806Z,100988.28
2022-10-26T05:26:05.994Z,100987.38
2022-10-26T05:28:33.937Z,100999.69
2022-10-26T05:31:01.785Z,100993.56
2022-10-26T05:33:29.818Z,100999.72
2022-10-26T05:35:57.637Z,101000.59
2022-10-26T05:41:01.220Z,100988.31
2022-10-26T05:43:29.644Z,100994.53
2022-10-26T05:45:57.459Z,100992.78
2022-10-26T05:48:25.387Z,100989.28
2022-10-26T05:50:53.142Z,101006.91
2022-10-26T05:53:21.295Z,101006.94
2022-10-26T05:55:49.734Z,101000.81
2022-10-26T05:58:19.715Z,100993.75
2022-10-26T06:01:00.871Z,101007.03
2022-10-26T06:03:41.530Z,101013.19
2022-10-26T06:06:14.220Z,101014.13
2022-10-26T06:08:43.583Z,101021.19
2022-10-26T06:11:12.354Z,101015.91
2022-10-26T06:13:42.573Z,101015.03
2022-10-26T06:16:30.388Z,101015.97
2022-10-26T06:19:10.864Z,101011.56
2022-10-26T06:21:57.040Z,101018.63
2022-10-26T06:24:33.593Z,101017.75
2022-10-26T06:27:10.314Z,101016.94
2022-10-26T06:29:49.446Z,101014.28
2022-10-26T06:32:18.739Z,101029.31
2022-10-26T06:34:51.591Z,101020.53
2022-10-26T06:37:20.030Z,101022.31
2022-10-26T06:39:53.921Z,101030.22
2022-10-26T06:42:23.232Z,101029.41
2022-10-26T06:44:53.135Z,101026.78
2022-10-26T06:47:29.017Z,101026.78
2022-10-26T06:50:03.761Z,101023.31
2022-10-26T06:52:36.958Z,101026.88
2022-10-26T06:55:05.515Z,101017.25
2022-10-26T06:57:36.610Z,101030.50
2022-10-26T07:00:19.873Z,101026.13
2022-10-26T07:02:48.864Z,101030.59
2022-10-26T07:05:17.617Z,101029.78
2022-10-26T07:07:48.793Z,101027.19
2022-10-26T07:10:17.265Z,101026.41
2022-10-26T07:12:45.259Z,101035.28
2022-10-26T07:15:14.756Z,101038.00
2022-10-26T07:17:46.604Z,101038.09
2022-10-26T07:20:15.440Z,101036.41
2022-10-26T07:22:43.836Z,101034.72
2022-10-26T07:25:12.361Z,101030.38
2022-10-26T07:27:40.281Z,101036.63
2022-10-26T07:30:09.310Z,101029.66
2022-10-26T07:32:38.532Z,101039.44
2022-10-26T07:35:07.357Z,101035.13
2022-10-26T07:37:35.368Z,101039.63
2022-10-26T07:40:06.464Z,101041.47
2022-10-26T07:42:36.590Z,101045.97
2022-10-26T07:45:05.972Z,101039.91
2022-10-26T07:47:34.272Z,101038.22
2022-10-26T07:50:05.140Z,101035.69
2022-10-26T07:52:34.855Z,101041.03
2022-10-26T07:55:02.800Z,101041.19
2022-10-26T07:57:30.783Z,101043.91
2022-10-26T07:59:58.662Z,101038.69
2022-10-26T08:02:26.592Z,101039.66
2022-10-26T08:04:54.453Z,101034.41
2022-10-26T08:07:23.657Z,101038.03
2022-10-26T08:09:51.563Z,101052.28
2022-10-26T08:12:19.517Z,101045.28
2022-10-26T08:14:47.566Z,101048.03
2022-10-26T08:17:15.414Z,101057.81
2022-10-26T08:19:43.283Z,101057.88
2022-10-26T08:22:11.344Z,101062.38
2022-10-26T08:24:40.828Z,101053.63
2022-10-26T08:27:08.676Z,101057.25
2022-10-26T08:29:36.598Z,101048.47
2022-10-26T08:32:04.646Z,101048.53
2022-10-26T08:34:32.487Z,101054.78
2022-10-26T08:37:00.483Z,101049.53
2022-10-26T08:39:30.718Z,101049.63
2022-10-26T08:42:08.243Z,101051.44
2022-10-26T08:44:41.151Z,101049.69
2022-10-26T08:47:15.075Z,101045.31
2022-10-26T08:49:49.601Z,101050.63
2022-10-26T08:52:24.300Z,101050.63
2022-10-26T08:54:54.979Z,101049.78
2022-10-26T08:57:29.208Z,101038.25
2022-10-26T09:00:00.538Z,101042.69
2022-10-26T09:02:28.703Z,101039.09
2022-10-26T09:04:59.297Z,101043.50
2022-10-26T09:07:41.170Z,101034.63
2022-10-26T09:10:32.539Z,101039.94
2022-10-26T09:13:07.399Z,101033.69
2022-10-26T09:15:47.710Z,101032.75
2022-10-26T09:18:27.947Z,101040.69
2022-10-26T09:21:20.333Z,101036.19
2022-10-26T09:23:58.239Z,101045.91
2022-10-26T09:26:32.915Z,101036.97
2022-10-26T09:29:06.016Z,101030.69
2022-10-26T09:31:43.638Z,101036.84
2022-10-26T09:34:24.186Z,101043.91
2022-10-26T09:36:55.749Z,101042.94
2022-10-26T09:39:31.693Z,101041.97
2022-10-26T09:42:04.643Z,101046.34
2022-10-26T09:44:41.274Z,101045.38
2022-10-26T09:47:17.081Z,101040.00
2022-10-26T09:49:49.010Z,101042.69
2022-10-26T09:52:17.177Z,101039.03
2022-10-26T09:54:45.290Z,101041.59
2022-10-26T09:57:16.749Z,101041.56
2022-10-26T09:59:49.929Z,101043.25
2022-10-26T10:02:36.759Z,101052.94
2022-10-26T10:05:32.639Z,101044.81
2022-10-26T10:08:12.579Z,101045.63
2022-10-26T10:10:40.538Z,101050.00
2022-10-26T10:13:21.519Z,101049.09
2022-10-26T10:15:55.552Z,101046.31
2022-10-26T10:18:25.015Z,101050.81
2022-10-26T10:20:55.317Z,101050.91
2022-10-26T10:23:29.369Z,101049.22
2022-10-26T10:26:05.903Z,101062.66
2022-10-26T10:28:34.895Z,101064.53
2022-10-26T10:31:05.916Z,101066.34
2022-10-26T10:33:42.765Z,101059.28
2022-10-26T10:36:15.565Z,101052.25
2022-10-26T10:38:45.504Z,101055.81
2022-10-26T10:41:29.227Z,101048.63
2022-10-26T10:44:03.189Z,101048.47
2022-10-26T10:46:32.367Z,101045.66
2022-10-26T10:49:06.091Z,101046.41
2022-10-26T10:51:39.729Z,101041.94
2022-10-26T10:54:19.469Z,101050.81
2022-10-26T10:56:52.168Z,101047.25
2022-10-26T10:59:36.542Z,101042.63
2022-10-26T11:02:34.695Z,101050.53
2022-10-26T11:05:26.370Z,101050.34
2022-10-26T11:08:02.382Z,101051.97
2022-10-26T11:10:37.262Z,101048.91
2022-10-26T11:13:11.229Z,101053.00
2022-10-26T11:15:44.468Z,101050.03
2022-10-26T11:18:19.986Z,101047.03
2022-10-26T11:20:55.138Z,101052.06
2022-10-26T11:23:26.901Z,101049.25
2022-10-26T11:26:00.266Z,101050.00
2022-10-26T11:28:40.608Z,101048.22
2022-10-26T11:31:14.887Z,101051.81
2022-10-26T11:33:49.358Z,101046.34
2022-10-26T11:36:22.123Z,101032.81
2022-10-26T11:38:58.693Z,101039.88
2022-10-26T11:41:34.701Z,101050.50
2022-10-26T11:44:07.942Z,101045.97
2022-10-26T11:46:40.935Z,101052.13
2022-10-26T11:49:15.561Z,101055.66
2022-10-26T11:51:47.844Z,101057.44
2022-10-26T11:56:56.586Z,101052.44
2022-10-26T11:59:29.245Z,101046.63
2022-10-26T12:02:06.221Z,101050.72
2022-10-26T12:04:39.246Z,101055.69
2022-10-26T12:07:14.659Z,101048.97
2022-10-26T12:09:45.095Z,101043.31
2022-10-26T12:12:21.067Z,101040.34
2022-10-26T12:14:57.797Z,101041.63
2022-10-26T12:17:30.716Z,101043.78
2022-10-26T12:20:08.927Z,101047.81
2022-10-26T12:22:40.072Z,101048.31
2022-10-26T12:25:23.030Z,101049.53
2022-10-26T12:27:54.412Z,101055.31
2022-10-26T12:30:31.100Z,101046.84
2022-10-26T12:33:01.148Z,101051.97
2022-10-26T12:35:44.810Z,101050.78
2022-10-26T12:38:47.001Z,101057.94
2022-10-26T12:41:23.829Z,101054.47
2022-10-26T12:43:51.809Z,101057.97
2022-10-26T12:46:43.304Z,101061.91
2022-10-26T12:49:49.908Z,101055.44
2022-10-26T12:52:30.452Z,101050.34
2022-10-26T12:55:17.794Z,101056.06
2022-10-26T12:57:52.742Z,101053.63
2022-10-26T13:00:25.072Z,101051.38
2022-10-26T13:03:07.744Z,101048.31
2022-10-26T13:06:18.190Z,101058.41
2022-10-26T13:08:55.143Z,101062.59
2022-10-26T13:11:31.433Z,101048.66
2022-10-26T13:14:02.863Z,101048.72
2022-10-26T13:16:31.758Z,101044.31
2022-10-26T13:19:01.466Z,101047.06
2022-10-26T13:21:29.578Z,101060.66
2022-10-26T13:24:05.338Z,101059.94
2022-10-26T13:26:54.025Z,101057.25
2022-10-26T13:29:30.672Z,101052.75
2022-10-26T13:32:00.050Z,101057.84
2022-10-26T13:34:31.918Z,101066.66
2022-10-26T13:37:08.687Z,101070.41
2022-10-26T13:39:42.383Z,101068.75
2022-10-26T13:42:17.726Z,101066.81
2022-10-26T13:44:51.534Z,101069.63
2022-10-26T13:47:28.556Z,101072.50
2022-10-26T13:50:01.040Z,101077.09
2022-10-26T13:52:34.539Z,101082.78
2022-10-26T13:55:10.114Z,101079.53
2022-10-26T13:57:43.337Z,101084.41
2022-10-26T14:00:18.622Z,101082.84
2022-10-26T14:02:46.557Z,101087.38
2022-10-26T14:05:17.454Z,101078.53
2022-10-26T14:07:51.517Z,101081.41
2022-10-26T14:10:29.834Z,101081.66
2022-10-26T14:12:58.872Z,101078.25
2022-10-26T14:15:30.712Z,101080.16
2022-10-26T14:18:01.102Z,101087.44
2022-10-26T14:20:31.113Z,101083.09
2022-10-26T14:22:58.912Z,101085.91
2022-10-26T14:25:42.078Z,101088.72
2022-10-26T14:28:22.888Z,101084.44
2022-10-26T14:30:51.263Z,101083.63
2022-10-26T14:33:20.614Z,101079.28
2022-10-26T14:35:49.533Z,101079.44
2022-10-26T14:38:23.027Z,101080.53
2022-10-26T14:40:52.969Z,101087.88
2022-10-26T14:43:24.472Z,101081.72
2022-10-26T14:45:54.138Z,101073.81
2022-10-26T14:48:30.007Z,101080.19
2022-10-26T14:51:09.862Z,101086.63
2022-10-26T14:53:39.724Z,101085.88
2022-10-26T14:56:28.631Z,101085.16
2022-10-26T14:58:57.728Z,101088.84
2022-10-26T15:01:29.316Z,101083.59
2022-10-26T15:04:03.869Z,101089.09
2022-10-26T15:06:43.024Z,101087.44
2022-10-26T15:09:38.766Z,101083.06
2022-10-26T15:12:19.125Z,101090.28
2022-10-26T15:14:47.681Z,101096.56
2022-10-26T15:17:23.109Z,101094.03
2022-10-26T15:19:52.423Z,101098.53
2022-10-26T15:22:32.262Z,101105.78
2022-10-26T15:25:03.727Z,101099.56
2022-10-26T15:27:32.948Z,101115.75
2022-10-26T15:30:17.715Z,101105.13
2022-10-26T15:32:45.699Z,101111.41
2022-10-26T15:35:29.978Z,101119.59
2022-10-26T15:37:59.004Z,101113.47
2022-10-26T15:40:29.118Z,101112.63
2022-10-26T15:43:01.786Z,101118.06
2022-10-26T15:45:33.044Z,101115.53
2022-10-26T15:48:17.747Z,101112.97
2022-10-26T15:50:45.530Z,101114.84
2022-10-26T15:53:19.252Z,101115.84
2022-10-26T15:55:47.759Z,101115.94
2022-10-26T15:58:17.562Z,101116.03
2022-10-26T16:00:45.377Z,101114.31
2022-10-26T16:03:16.973Z,101109.94
2022-10-26T16:05:44.777Z,101117.16
2022-10-26T16:08:17.863Z,101118.13
2022-10-26T16:10:46.974Z,101121.75
2022-10-26T16:13:15.613Z,101128.09
2022-10-26T16:15:45.654Z,101134.41
2022-10-26T16:18:13.499Z,101135.38
2022-10-26T16:20:42.052Z,101142.63
2022-10-26T16:23:09.837Z,101146.25
2022-10-26T16:25:42.940Z,101151.72
2022-10-26T16:28:13.084Z,101150.88
2022-10-26T16:33:15.126Z,101155.50
2022-10-26T16:35:42.928Z,101162.72
2022-10-26T16:38:10.810Z,101168.09
2022-10-26T16:40:38.786Z,101168.13
2022-10-26T16:43:06.581Z,101170.91
2022-10-26T16:45:34.698Z,101172.72
2022-10-26T16:48:05.821Z,101174.56
2022-10-26T16:50:36.409Z,101169.25
2022-10-26T16:53:04.499Z,101175.56
2022-10-26T16:55:32.907Z,101178.28
2022-10-26T16:58:00.702Z,101184.56
2022-10-26T17:00:28.486Z,101178.38
2022-10-26T17:02:56.255Z,101188.16
2022-10-26T17:05:24.030Z,101185.53
2022-10-26T17:07:53.458Z,101188.25
2022-10-26T17:10:21.391Z,101198.06
2022-10-26T17:12:49.479Z,101202.56
2022-10-26T17:15:19.879Z,101202.56
2022-10-26T17:17:48.959Z,101205.28
2022-10-26T17:20:17.102Z,101204.41
2022-10-26T17:22:44.876Z,101210.69
2022-10-26T17:25:14.097Z,101216.09
2022-10-26T17:27:46.334Z,101216.97
2022-10-26T17:30:16.878Z,101219.63
2022-10-26T17:32:44.659Z,101219.66
2022-10-26T17:35:13.587Z,101225.00
2022-10-26T17:37:41.400Z,101223.25
2022-10-26T17:40:10.013Z,101218.81
2022-10-26T17:42:40.347Z,101218.84
2022-10-26T17:45:09.790Z,101228.63
2022-10-26T17:47:37.561Z,101233.97
2022-10-26T17:50:06.084Z,101240.22
2022-10-26T17:52:33.960Z,101250.91
2022-10-26T17:55:02.789Z,101250.03
2022-10-26T17:57:31.119Z,101262.50
2022-10-26T18:00:05.212Z,101245.63
2022-10-26T18:02:40.300Z,101245.63
2022-10-26T18:05:09.308Z,101250.97
2022-10-26T18:07:37.096Z,101260.75
2022-10-26T18:10:14.113Z,101261.66
2022-10-26T18:12:53.683Z,101268.78
2022-10-26T18:15:23.894Z,101269.66
2022-10-26T18:17:56.780Z,101269.69
2022-10-26T18:20:27.650Z,101275.03
2022-10-26T18:22:56.564Z,101273.25
2022-10-26T18:25:24.367Z,101279.47
2022-10-26T18:27:52.205Z,101282.13
2022-10-26T18:30:20.104Z,101286.59
2022-10-26T18:32:51.706Z,101292.81
2022-10-26T18:35:20.295Z,101298.13
2022-10-26T18:37:48.266Z,101299.00
2022-10-26T18:40:16.397Z,101300.78
2022-10-26T18:42:44.145Z,101305.22
2022-10-26T18:45:12.429Z,101306.13
2022-10-26T18:47:40.263Z,101304.34
2022-10-26T18:50:10.131Z,101299.03
2022-10-26T18:52:37.927Z,101304.34
2022-10-26T18:55:06.714Z,101314.13
2022-10-26T18:57:34.485Z,101314.09
2022-10-26T19:00:02.261Z,101318.53
2022-10-26T19:02:30.033Z,101325.66
2022-10-26T19:04:58.882Z,101323.81
2022-10-26T19:07:28.064Z,101327.38
2022-10-26T19:09:55.810Z,101330.88
2022-10-26T19:12:23.557Z,101334.44
2022-10-26T19:14:51.652Z,101338.88
2022-10-26T19:17:19.442Z,101345.97
2022-10-26T19:19:47.210Z,101358.34
2022-10-26T19:22:15.009Z,101351.25
2022-10-26T19:24:47.452Z,101357.44
2022-10-26T19:27:15.220Z,101360.13
2022-10-26T19:29:42.991Z,101361.00
2022-10-26T19:32:10.833Z,101364.56
2022-10-26T19:34:38.600Z,101367.22
2022-10-26T19:37:06.987Z,101371.63
2022-10-26T19:39:34.738Z,101376.03
2022-10-26T19:42:03.839Z,101378.69
2022-10-26T19:44:31.630Z,101385.78
2022-10-26T19:46:59.391Z,101386.69
2022-10-26T19:49:27.190Z,101391.97
2022-10-26T19:51:57.883Z,101389.31
2022-10-26T19:54:25.678Z,101395.47
2022-10-26T19:56:54.270Z,101399.03
2022-10-26T19:59:23.553Z,101408.78
2022-10-26T20:01:51.385Z,101399.91
2022-10-26T20:04:19.242Z,101414.94
2022-10-26T20:06:46.995Z,101408.75
2022-10-26T20:09:14.774Z,101407.84
2022-10-26T20:11:43.386Z,101417.59
2022-10-26T20:14:13.718Z,101417.59
2022-10-26T20:16:42.922Z,101415.78
2022-10-26T20:19:10.745Z,101423.72
2022-10-26T20:21:38.760Z,101419.31
2022-10-26T20:24:10.118Z,101419.28
2022-10-26T20:26:38.483Z,101422.81
2022-10-26T20:29:06.614Z,101429.84
2022-10-26T20:31:34.340Z,101429.88
2022-10-26T20:34:03.745Z,101435.16
2022-10-26T20:36:31.537Z,101432.50
2022-10-26T20:38:59.784Z,101437.81
2022-10-26T20:41:28.021Z,101444.00
2022-10-26T20:43:57.993Z,101441.31
2022-10-26T20:46:27.739Z,101445.75
2022-10-26T20:48:56.510Z,101446.63
2022-10-26T20:51:41.891Z,101451.94
2022-10-26T20:54:19.334Z,101451.03
2022-10-26T20:56:49.027Z,101447.44
2022-10-26T20:59:24.114Z,101453.66
2022-10-26T21:01:52.220Z,101457.16
2022-10-26T21:04:20.097Z,101462.47
2022-10-26T21:06:49.645Z,101466.03
2022-10-26T21:09:17.384Z,101469.50
2022-10-26T21:11:45.809Z,101471.28
2022-10-26T21:14:13.579Z,101465.06
2022-10-26T21:16:41.317Z,101480.13
2022-10-26T21:19:09.043Z,101483.63
2022-10-26T21:21:36.773Z,101483.63
2022-10-26T21:24:06.412Z,101493.38
2022-10-26T21:26:34.530Z,101490.69
2022-10-26T21:29:03.266Z,101490.69
2022-10-26T21:31:31.216Z,101496.88
2022-10-26T21:33:58.986Z,101498.66
2022-10-26T21:36:26.742Z,101497.78
2022-10-26T21:38:54.533Z,101493.31
2022-10-26T21:44:03.277Z,101501.28
2022-10-26T21:46:37.271Z,101510.13
2022-10-26T21:49:05.272Z,101504.81
2022-10-26T21:51:33.063Z,101508.31
2022-10-26T21:54:00.847Z,101518.03
2022-10-26T21:56:30.006Z,101519.78
2022-10-26T21:59:00.131Z,101526.84
2022-10-26T22:01:28.139Z,101528.56
2022-10-26T22:03:56.206Z,101529.44
2022-10-26T22:06:23.980Z,101532.97
2022-10-26T22:08:51.841Z,101525.84
2022-10-26T22:11:21.237Z,101527.63
2022-10-26T22:13:51.840Z,101533.81
2022-10-26T22:16:21.752Z,101527.59
2022-10-26T22:18:50.818Z,101531.13
2022-10-26T22:21:20.918Z,101532.00
2022-10-26T22:23:48.918Z,101536.41
2022-10-26T22:26:18.320Z,101538.19
2022-10-26T22:28:47.590Z,101542.63
2022-10-26T22:31:19.206Z,101539.94
2022-10-26T22:33:47.219Z,101534.63
2022-10-26T22:36:17.043Z,101534.56
2022-10-26T22:38:44.834Z,101530.06
2022-10-26T22:41:12.835Z,101541.56
2022-10-26T22:43:40.710Z,101528.25
2022-10-26T22:46:11.242Z,101538.88
2022-10-26T22:48:41.194Z,101537.06
2022-10-26T22:51:11.678Z,101548.53
2022-10-26T22:53:39.732Z,101538.81
2022-10-26T22:56:09.162Z,101542.34
2022-10-26T22:58:37.725Z,101538.78
2022-10-26T23:01:06.590Z,101549.38
2022-10-26T23:03:35.371Z,101546.72
2022-10-26T23:06:05.209Z,101549.38
2022-10-26T23:08:33.008Z,101545.81
2022-10-26T23:11:01.677Z,101550.22
2022-10-26T23:13:30.033Z,101559.94
2022-10-26T23:15:58.018Z,101550.19
2022-10-26T23:18:25.911Z,101554.59
2022-10-26T23:20:53.719Z,101559.88
2022-10-26T23:23:22.877Z,101562.50
2022-10-26T23:25:50.636Z,101569.56
2022-10-26T23:28:18.411Z,101571.31
2022-10-26T23:30:46.199Z,101578.41
2022-10-26T23:33:14.027Z,101576.63
2022-10-26T23:35:42.129Z,101579.31
2022-10-26T23:38:09.987Z,101586.38
2022-10-26T23:40:39.150Z,101583.66
2022-10-26T23:43:06.924Z,101585.38
2022-10-26T23:45:34.722Z,101587.13
2022-10-26T23:48:02.506Z,101588.00
2022-10-26T23:50:30.240Z,101590.59
2022-10-26T23:52:58.002Z,101595.00
2022-10-26T23:55:25.813Z,101602.91
2022-10-26T23:57:55.140Z,101596.72
